• Join FlightAware (Why Join?)
  • Login
  • US Flag 
10:26AM EDT


 

Airport Tracker/Info


-or-


 

Live Flight TrackerFlight Track Log ✈ KAP910 ✈ 09-May-2013 ✈ KBOS - KACK

Flight Track Log - Related Links

Times and Time Zones

All times are in EDT time to prevent confusion due to time zone crossing. See the KAP910 flight status page for this flight to view local times or setup timezone preferences in your user account.

Time Position Orientation Groundspeed Altitude Reporting Facility
EDT Latitude Longitude Course Direction KTS MPH feet Rate Location/Type
12:41PM 42.3500 -71.0333 237° Southwest 113 130 1,000  Level KA90
12:42PM 42.3167 -71.0500 200° South 119 137 1,700 600 Climbing KA90
12:43PM 42.2833 -71.0833 216° Southwest 118 136 2,300 540 Climbing KA90
12:43PM 42.2667 -71.0833 180° South 131 151 2,800 600 Climbing KA90
12:44PM 42.2333 -71.0500 143° Southeast 138 159 3,500 660 Climbing KA90
12:45PM 42.2167 -71.0000 114° Southeast 128 147 4,200 600 Climbing KA90
12:46PM 42.1833 -70.9667 143° Southeast 129 148 4,800 360 Climbing KA90
12:47PM 42.1667 -70.9333 124° Southeast 141 162 5,000 180 Climbing KA90
12:49PM 42.1362 -70.9037 144° Southeast  Level Estimated
12:56PM 41.9389 -70.7128 144° Southeast  Level Estimated
12:57PM 41.9108 -70.6856 144° Southeast  Level Estimated
12:58PM 41.8825 -70.6585 144° Southeast  Level Estimated
12:59PM 41.8543 -70.6313 144° Southeast  Level Estimated
01:00PM 41.8261 -70.6042 144° Southeast  Level Estimated
01:01PM 41.7979 -70.5772 144° Southeast  Level Estimated
01:02PM 41.7696 -70.5501 144° Southeast  Level Estimated
01:03PM 41.7414 -70.5231 144° Southeast  Level Estimated
01:04PM 41.7132 -70.4961 144° Southeast  Level Estimated
01:05PM 41.6849 -70.4691 144° Southeast  Level Estimated
01:06PM 41.6567 -70.4421 145° Southeast  Level Estimated
01:07PM 41.6284 -70.4152 145° Southeast  Level Estimated
01:08PM 41.6001 -70.3883 145° Southeast  Level Estimated
01:09PM 41.5718 -70.3614 145° Southeast  Level Estimated
01:10PM 41.5436 -70.3345 145° Southeast  Level Estimated
01:11PM 41.5153 -70.3077 145° Southeast  Level Estimated
01:12PM 41.4870 -70.2809 145° Southeast  Level Estimated
01:13PM 41.4587 -70.2541 145° Southeast  Level Estimated
01:14PM 41.4304 -70.2273 145° Southeast  Level Estimated
01:15PM 41.4021 -70.2005 145° Southeast  Level Estimated
01:16PM 41.3737 -70.1738 145° Southeast  Level Estimated
01:17PM 41.3454 -70.1471 145° Southeast  Level Estimated
01:18PM 41.3171 -70.1205 145° Southeast  Level Estimated
01:19PM 41.2887 -70.0938 145° Southeast  Level Estimated
01:20PM 41.2604 -70.0672 145° Southeast  Level Estimated
01:21PM 41.2531 -70.0603 145° Southeast  Level Estimated
01:22PM 41.2531 -70.0603 72° East  Level Estimated
01:23PM 41.2531 -70.0603 72° East  Level Estimated
01:24PM 41.2531 -70.0603 72° East  Level Estimated
01:25PM 41.2531 -70.0603 72° East  Level Estimated
01:26PM 41.2531 -70.0603 72° East  Level Estimated